Time;durP1;ratioP1;P1;durP2;ratioP2;P2;SDS_P1;SDS_P2;PMS_P1;PMS_P2;Temp;Humidity;BMP_temperature;BMP_pressure;BME280_temperature;BME280_humidity;BME280_pressure;Samples;Min_cycle;Max_cycle;Signal;HPM_P1;HPM_P2
2022/03/01 00:02:18;;;;;;;5.33;3.23;;;;;;;-3.44;69.48;96800.81;1781747;80;21039;-69
2022/03/01 00:04:45;;;;;;;5.83;3.20;;;;;;;-3.33;69.74;96794.94;1781891;80;21015;-69
2022/03/01 00:07:12;;;;;;;5.47;3.10;;;;;;;-3.17;69.57;96795.38;1781881;80;20991;-69
2022/03/01 00:09:39;;;;;;;4.43;3.37;;;;;;;-3.15;69.01;96794.66;1782766;80;21059;-69
2022/03/01 00:12:07;;;;;;;4.97;3.20;;;;;;;-3.19;70.02;96793.11;1754539;80;21049;-69
2022/03/01 00:14:34;;;;;;;7.40;4.10;;;;;;;-3.19;69.61;96795.28;1782987;80;21018;-69
2022/03/01 00:17:00;;;;;;;6.00;3.33;;;;;;;-3.28;70.04;96789.24;1782768;80;21018;-69
2022/03/01 00:19:29;;;;;;;5.07;3.00;;;;;;;-3.20;71.01;96788.73;1782993;80;21014;-69
2022/03/01 00:21:57;;;;;;;7.33;3.43;;;;;;;-3.14;70.36;96788.67;1782988;80;21015;-69
2022/03/01 00:24:24;;;;;;;14.70;6.97;;;;;;;-3.08;69.84;96782.94;1782688;80;20991;-69
2022/03/01 00:26:50;;;;;;;7.97;4.87;;;;;;;-3.13;69.84;96781.39;1782876;80;20983;-69
2022/03/01 00:29:17;;;;;;;6.33;3.23;;;;;;;-3.18;70.45;96784.55;1782908;80;20999;-69
2022/03/01 00:31:44;;;;;;;6.17;3.33;;;;;;;-3.03;70.43;96781.89;1782806;80;21018;-69
2022/03/01 00:34:11;;;;;;;7.37;4.23;;;;;;;-2.99;69.82;96781.26;1782984;80;21014;-69
2022/03/01 00:36:37;;;;;;;8.67;5.10;;;;;;;-2.99;70.58;96772.22;1782755;80;21011;-69
2022/03/01 00:39:05;;;;;;;8.27;5.23;;;;;;;-3.05;71.47;96772.77;1782813;80;21336;-69
2022/03/01 00:41:32;;;;;;;11.63;5.47;;;;;;;-3.17;71.54;96772.14;1782871;80;21058;-69
2022/03/01 00:43:59;;;;;;;7.50;4.50;;;;;;;-3.12;71.86;96774.16;1782879;80;21026;-69
2022/03/01 00:46:26;;;;;;;11.73;5.60;;;;;;;-3.06;71.61;96772.30;1782955;80;21046;-69
2022/03/01 00:48:55;;;;;;;10.37;5.60;;;;;;;-3.02;71.35;96772.03;1782920;80;21026;-69
2022/03/01 00:51:21;;;;;;;9.37;5.20;;;;;;;-2.95;71.03;96767.68;1782328;80;21058;-69
2022/03/01 00:53:48;;;;;;;13.37;6.27;;;;;;;-2.93;70.34;96772.11;1782879;80;21015;-71
2022/03/01 00:56:15;;;;;;;9.27;5.33;;;;;;;-3.00;70.91;96766.14;1782873;80;21011;-69
2022/03/01 00:58:41;;;;;;;5.77;3.40;;;;;;;-3.02;71.03;96768.16;1782859;80;21007;-69
2022/03/01 01:01:08;;;;;;;4.83;3.17;;;;;;;-2.95;70.69;96759.55;1782835;80;21030;-69
2022/03/01 01:03:35;;;;;;;5.70;3.07;;;;;;;-3.02;70.11;96760.41;1783070;80;21461;-69
2022/03/01 01:06:02;;;;;;;6.90;3.47;;;;;;;-3.07;70.38;96761.49;1782833;80;21088;-69
2022/03/01 01:08:28;;;;;;;5.90;3.37;;;;;;;-3.13;70.21;96765.91;1782181;80;21532;-69
2022/03/01 01:10:56;;;;;;;6.17;3.33;;;;;;;-3.26;71.30;96760.50;1781740;80;21018;-69
2022/03/01 01:13:22;;;;;;;5.13;3.60;;;;;;;-3.35;72.45;96763.91;1781990;80;21010;-69
2022/03/01 01:15:49;;;;;;;7.57;3.67;;;;;;;-3.38;73.13;96761.55;1781909;80;21058;-69
2022/03/01 01:18:16;;;;;;;8.10;4.33;;;;;;;-3.32;72.72;96762.77;1782053;80;20959;-69
2022/03/01 01:20:42;;;;;;;10.60;5.77;;;;;;;-3.36;73.08;96765.10;1781762;80;21070;-69
2022/03/01 01:23:09;;;;;;;9.77;5.40;;;;;;;-3.23;72.54;96771.80;1781778;80;21003;-69
2022/03/01 01:25:35;;;;;;;4.50;3.30;;;;;;;-3.27;71.94;96767.77;1781922;80;20991;-71
2022/03/01 01:28:03;;;;;;;5.50;3.70;;;;;;;-3.15;72.19;96767.55;1781773;80;21559;-69
2022/03/01 01:30:33;;;;;;;6.57;3.90;;;;;;;-3.01;71.94;96765.67;1782024;80;20994;-69
2022/03/01 01:33:00;;;;;;;6.17;3.80;;;;;;;-2.87;71.48;96762.13;1781962;80;21576;-69
2022/03/01 01:35:30;;;;;;;6.33;3.70;;;;;;;-2.79;70.88;96761.63;1781913;80;20989;-69
2022/03/01 01:37:58;;;;;;;8.07;3.33;;;;;;;-2.69;70.67;96759.59;1781915;80;21063;-69
2022/03/01 01:40:28;;;;;;;6.20;3.33;;;;;;;-2.76;69.80;96760.08;1781786;80;21011;-69
2022/03/01 01:42:57;;;;;;;12.40;5.57;;;;;;;-2.94;70.04;96765.60;1782024;80;21011;-69
2022/03/01 01:45:25;;;;;;;14.73;8.43;;;;;;;-2.98;70.66;96758.08;1781924;80;21034;-69
2022/03/01 01:47:53;;;;;;;20.17;9.50;;;;;;;-2.98;70.88;96760.66;1781951;80;20984;-69
2022/03/01 01:50:22;;;;;;;16.70;8.60;;;;;;;-2.92;71.21;96751.08;1781901;80;21057;-69
2022/03/01 01:52:50;;;;;;;18.43;8.87;;;;;;;-3.01;70.75;96762.21;1782091;80;21018;-69
2022/03/01 01:55:19;;;;;;;4.93;3.57;;;;;;;-3.14;70.74;96760.69;1781848;80;21018;-69
2022/03/01 01:57:47;;;;;;;8.80;3.80;;;;;;;-3.11;71.51;96762.13;1781889;80;21042;-69
2022/03/01 02:00:16;;;;;;;6.10;4.07;;;;;;;-3.00;71.61;96760.98;1781818;80;21508;-69
2022/03/01 02:02:44;;;;;;;6.73;3.73;;;;;;;-2.98;70.76;96758.48;1781858;80;21489;-69
2022/03/01 02:05:12;;;;;;;5.40;3.37;;;;;;;-2.92;71.10;96751.08;1781878;80;21038;-69
2022/03/01 02:07:48;;;;;;;7.37;3.40;;;;;;;-2.78;70.97;96750.48;1782076;80;20986;-69
2022/03/01 02:10:16;;;;;;;6.80;3.77;;;;;;;-2.76;69.90;96748.45;1790087;80;21491;-69
2022/03/01 02:12:44;;;;;;;8.10;4.30;;;;;;;-2.94;70.78;96746.23;1790166;80;21012;-69
2022/03/01 02:15:12;;;;;;;12.17;5.30;;;;;;;-3.08;71.22;96746.79;1790097;80;21022;-69
2022/03/01 02:17:40;;;;;;;4.70;3.40;;;;;;;-3.07;71.78;96746.89;1790260;80;21481;-69
2022/03/01 02:20:12;;;;;;;9.40;3.80;;;;;;;-3.05;71.04;96744.36;1759776;80;21006;-69
2022/03/01 02:22:39;;;;;;;6.33;4.07;;;;;;;-2.93;71.19;96754.45;1790243;80;21441;-69
2022/03/01 02:25:07;;;;;;;6.40;4.27;;;;;;;-3.02;70.40;96753.58;1789955;80;21020;-69
2022/03/01 02:27:34;;;;;;;11.50;4.73;;;;;;;-3.11;71.13;96757.84;1790266;80;21030;-69
2022/03/01 02:30:01;;;;;;;8.30;4.10;;;;;;;-3.09;71.61;96751.08;1790145;80;21009;-69
2022/03/01 02:32:28;;;;;;;6.30;3.77;;;;;;;-3.08;70.85;96750.25;1790139;80;21018;-69
2022/03/01 02:34:54;;;;;;;7.50;3.57;;;;;;;-3.05;70.97;96753.02;1790261;80;21484;-69
2022/03/01 02:37:21;;;;;;;4.10;2.93;;;;;;;-2.96;70.87;96747.84;1789839;80;21078;-70
2022/03/01 02:39:48;;;;;;;6.30;4.00;;;;;;;-2.97;70.11;96746.05;1790146;80;21010;-69
2022/03/01 02:42:14;;;;;;;5.77;3.67;;;;;;;-3.10;70.03;96748.40;1790132;80;21546;-69
2022/03/01 02:44:41;;;;;;;7.63;3.53;;;;;;;-3.12;70.22;96750.92;1790218;80;21030;-69
2022/03/01 02:47:07;;;;;;;5.30;3.50;;;;;;;-3.26;70.60;96742.44;1790171;80;20995;-69
2022/03/01 02:49:35;;;;;;;5.67;3.20;;;;;;;-3.29;71.17;96743.98;1790184;80;21033;-69
2022/03/01 02:52:02;;;;;;;5.40;3.63;;;;;;;-3.27;70.87;96743.26;1790007;80;21053;-69
2022/03/01 02:54:29;;;;;;;6.43;4.03;;;;;;;-3.21;71.27;96740.52;1790262;80;21006;-69
2022/03/01 02:56:59;;;;;;;9.33;3.57;;;;;;;-3.15;71.28;96741.73;1790121;80;20987;-69
2022/03/01 02:59:24;;;;;;;7.57;3.60;;;;;;;-3.28;70.41;96741.50;1790004;80;21027;-69
2022/03/01 03:01:50;;;;;;;4.97;3.20;;;;;;;-3.35;70.82;96742.34;1790243;80;21030;-69
2022/03/01 03:04:17;;;;;;;8.07;3.47;;;;;;;-3.26;71.49;96737.69;1790209;80;21026;-69
2022/03/01 03:06:44;;;;;;;8.23;3.73;;;;;;;-3.16;71.42;96733.48;1790258;80;21030;-69
2022/03/01 03:09:10;;;;;;;6.23;3.43;;;;;;;-3.02;71.43;96729.05;1790019;80;21014;-69
2022/03/01 03:11:37;;;;;;;6.50;3.10;;;;;;;-2.89;70.73;96723.70;1789947;80;20994;-69
2022/03/01 03:14:03;;;;;;;6.30;3.53;;;;;;;-2.85;70.42;96720.86;1790222;80;21045;-69
2022/03/01 03:16:30;;;;;;;5.40;3.50;;;;;;;-2.77;70.42;96727.33;1790138;80;21453;-69
2022/03/01 03:18:57;;;;;;;7.47;3.93;;;;;;;-2.77;69.90;96728.61;1790052;80;21057;-69
2022/03/01 03:21:23;;;;;;;7.47;3.87;;;;;;;-2.73;70.20;96720.59;1790107;80;21022;-69
2022/03/01 03:23:50;;;;;;;4.33;3.13;;;;;;;-2.68;70.03;96717.84;1790220;80;21010;-69
2022/03/01 03:26:17;;;;;;;10.00;4.40;;;;;;;-2.67;69.56;96714.06;1789836;80;20998;-69
2022/03/01 03:28:44;;;;;;;9.47;5.50;;;;;;;-2.73;69.36;96716.31;1790210;80;20979;-69
2022/03/01 03:31:12;;;;;;;12.27;5.37;;;;;;;-2.91;69.86;96717.56;1789944;80;21070;-69
2022/03/01 03:33:40;;;;;;;10.87;5.17;;;;;;;-3.03;70.23;96722.09;1789960;80;21047;-69
2022/03/01 03:36:07;;;;;;;5.83;3.50;;;;;;;-3.28;71.28;96719.56;1790173;80;21007;-69
2022/03/01 03:38:33;;;;;;;9.10;4.10;;;;;;;-3.24;71.00;96719.30;1790200;80;21014;-69
2022/03/01 03:41:00;;;;;;;8.00;4.30;;;;;;;-3.19;70.57;96721.72;1789953;80;21002;-69
2022/03/01 03:43:26;;;;;;;7.17;3.50;;;;;;;-3.13;70.59;96714.28;1790084;80;21058;-69
2022/03/01 03:45:53;;;;;;;4.63;3.30;;;;;;;-3.06;70.36;96714.20;1790124;80;20986;-69
2022/03/01 03:48:19;;;;;;;7.47;3.83;;;;;;;-3.17;69.62;96725.27;1790131;80;21006;-69
2022/03/01 03:50:46;;;;;;;5.60;3.60;;;;;;;-3.21;70.19;96720.74;1759517;80;21021;-69
2022/03/01 03:53:12;;;;;;;8.40;4.60;;;;;;;-3.25;69.79;96722.70;1789956;80;21026;-69
2022/03/01 03:55:39;;;;;;;6.97;3.80;;;;;;;-3.36;69.95;96727.69;1790020;80;20955;-69
2022/03/01 03:58:05;;;;;;;5.60;3.63;;;;;;;-3.31;70.47;96725.82;1790276;80;21504;-69
2022/03/01 04:00:32;;;;;;;5.80;3.87;;;;;;;-3.19;70.66;96724.70;1790133;80;21010;-69
2022/03/01 04:02:59;;;;;;;7.43;3.97;;;;;;;-3.09;70.24;96716.22;1790084;80;21007;-69
2022/03/01 04:05:26;;;;;;;5.87;3.90;;;;;;;-3.18;69.33;96722.59;1789992;80;21049;-69
2022/03/01 04:07:52;;;;;;;5.97;3.87;;;;;;;-3.44;71.42;96725.98;1789744;80;21041;-69
2022/03/01 04:10:19;;;;;;;4.50;3.17;;;;;;;-3.60;70.47;96724.70;1782272;80;21031;-69
2022/03/01 04:12:45;;;;;;;4.97;3.50;;;;;;;-3.58;71.04;96719.20;1781544;80;20979;-69
2022/03/01 04:15:12;;;;;;;6.53;3.33;;;;;;;-3.57;71.19;96717.13;1781704;80;21504;-69
2022/03/01 04:17:40;;;;;;;4.97;3.27;;;;;;;-3.64;71.38;96719.77;1781882;80;21010;-69
2022/03/01 04:20:09;;;;;;;5.80;2.93;;;;;;;-3.73;71.34;96720.17;1781845;80;21536;-71
2022/03/01 04:22:36;;;;;;;4.30;3.03;;;;;;;-3.75;71.36;96723.47;1781641;80;21050;-71
2022/03/01 04:25:08;;;;;;;7.03;4.60;;;;;;;-3.65;71.90;96720.95;1781982;80;20983;-69
2022/03/01 04:27:35;;;;;;;10.00;5.93;;;;;;;-3.73;72.21;96719.26;1781787;80;21019;-71
2022/03/01 04:30:01;;;;;;;6.60;3.20;;;;;;;-3.85;72.33;96723.37;1781577;80;20991;-73
2022/03/01 04:32:28;;;;;;;4.63;3.03;;;;;;;-3.82;72.35;96726.11;1781857;80;21049;-70
2022/03/01 04:34:55;;;;;;;10.93;3.10;;;;;;;-3.66;72.41;96722.66;1781864;80;21481;-70
2022/03/01 04:37:21;;;;;;;10.20;3.10;;;;;;;-3.57;71.79;96726.15;1781564;80;20995;-70
2022/03/01 04:39:48;;;;;;;3.63;2.80;;;;;;;-3.47;71.65;96728.83;1781844;80;21449;-70
2022/03/01 04:42:15;;;;;;;4.73;3.10;;;;;;;-3.43;71.47;96721.70;1781504;80;21039;-70
2022/03/01 04:44:41;;;;;;;7.83;5.10;;;;;;;-3.37;71.29;96721.64;1781867;80;21074;-70
2022/03/01 04:47:08;;;;;;;13.20;7.93;;;;;;;-3.44;70.99;96721.23;1782043;80;21473;-70
2022/03/01 04:49:34;;;;;;;5.43;3.63;;;;;;;-3.61;71.83;96726.78;1781861;80;21050;-70
2022/03/01 04:52:01;;;;;;;3.83;2.70;;;;;;;-3.74;71.51;96723.53;1782030;80;21019;-70
2022/03/01 04:54:28;;;;;;;4.90;3.00;;;;;;;-3.85;71.73;96723.78;1782021;80;21058;-71
2022/03/01 04:56:54;;;;;;;8.70;3.67;;;;;;;-3.80;72.19;96726.20;1781629;80;21091;-70
2022/03/01 04:59:21;;;;;;;3.53;2.87;;;;;;;-3.83;72.24;96740.19;1782073;80;21483;-70
2022/03/01 05:01:47;;;;;;;6.27;3.20;;;;;;;-3.89;71.84;96734.72;1782008;80;21011;-71
2022/03/01 05:04:14;;;;;;;4.97;2.73;;;;;;;-3.98;72.35;96737.28;1781924;80;21028;-70
2022/03/01 05:06:40;;;;;;;4.43;3.07;;;;;;;-3.85;72.45;96737.55;1782033;80;21049;-70
2022/03/01 05:09:07;;;;;;;4.77;2.70;;;;;;;-3.84;71.83;96735.85;1784405;80;21050;-70
2022/03/01 05:11:35;;;;;;;5.97;3.23;;;;;;;-3.75;72.14;96738.94;1789739;80;21049;-70
2022/03/01 05:14:03;;;;;;;4.47;2.63;;;;;;;-3.65;72.08;96735.14;1790250;80;20967;-70
2022/03/01 05:16:30;;;;;;;4.80;3.13;;;;;;;-3.59;71.28;96734.20;1790389;80;20987;-70
2022/03/01 05:18:56;;;;;;;4.83;3.00;;;;;;;-3.64;71.02;96739.52;1790110;80;20971;-70
2022/03/01 05:21:23;;;;;;;5.73;3.33;;;;;;;-3.65;71.12;96738.64;1790168;80;21386;-70
2022/03/01 05:23:49;;;;;;;5.13;2.70;;;;;;;-3.68;71.03;96735.87;1790193;80;21050;-70
2022/03/01 05:26:16;;;;;;;4.63;2.80;;;;;;;-3.70;71.46;96739.67;1790065;80;21012;-70
2022/03/01 05:28:43;;;;;;;4.83;3.33;;;;;;;-3.77;70.95;96740.14;1790191;80;20991;-70
2022/03/01 05:31:10;;;;;;;5.47;2.70;;;;;;;-3.82;71.03;96741.98;1790298;80;21059;-70
2022/03/01 05:33:37;;;;;;;6.27;3.27;;;;;;;-3.80;71.32;96742.55;1790264;80;21468;-70
2022/03/01 05:36:04;;;;;;;7.17;2.90;;;;;;;-3.73;71.32;96746.33;1790169;80;20979;-70
2022/03/01 05:38:30;;;;;;;4.60;2.80;;;;;;;-3.74;71.15;96741.59;1790048;80;21452;-70
2022/03/01 05:40:57;;;;;;;14.70;7.17;;;;;;;-3.76;71.07;96740.61;1790239;80;21110;-70
2022/03/01 05:43:24;;;;;;;21.97;10.83;;;;;;;-3.83;72.90;96751.80;1790267;80;21476;-70
2022/03/01 05:45:50;;;;;;;29.10;16.07;;;;;;;-3.71;72.96;96748.60;1790120;80;21014;-70
2022/03/01 05:48:17;;;;;;;23.43;13.33;;;;;;;-3.60;72.64;96745.34;1790187;80;21022;-70
2022/03/01 05:50:44;;;;;;;13.77;7.90;;;;;;;-3.58;72.44;96747.57;1790218;80;20962;-70
2022/03/01 05:53:10;;;;;;;28.13;14.47;;;;;;;-3.70;72.65;96749.98;1790096;80;21051;-70
2022/03/01 05:55:37;;;;;;;33.23;15.90;;;;;;;-3.70;72.83;96745.23;1789915;80;21086;-70
2022/03/01 05:58:03;;;;;;;31.63;15.93;;;;;;;-3.70;73.17;96742.66;1789928;80;21537;-70
2022/03/01 06:00:30;;;;;;;32.87;16.23;;;;;;;-3.79;73.66;96746.89;1789969;80;21014;-68
2022/03/01 06:02:57;;;;;;;14.87;6.30;;;;;;;-3.85;73.32;96741.83;1789656;80;21010;-72
2022/03/01 06:05:25;;;;;;;23.70;12.30;;;;;;;-3.92;73.12;96745.34;1789630;80;21026;-70
2022/03/01 06:07:51;;;;;;;16.00;9.77;;;;;;;-3.94;74.31;96745.65;1788778;80;21076;-71
2022/03/01 06:10:18;;;;;;;19.30;10.07;;;;;;;-3.88;74.92;96738.67;1782834;80;21481;-72
2022/03/01 06:12:45;;;;;;;16.97;10.10;;;;;;;-3.93;75.63;96736.25;1780224;80;21061;-67
2022/03/01 06:15:11;;;;;;;21.70;14.27;;;;;;;-3.83;75.55;96737.23;1743337;82;21510;-68
2022/03/01 06:17:38;;;;;;;25.07;15.23;;;;;;;-3.81;75.24;96739.47;1744055;82;21046;-70
2022/03/01 06:20:06;;;;;;;26.50;16.13;;;;;;;-3.68;75.76;96726.84;1744297;82;21156;-69
2022/03/01 06:22:33;;;;;;;27.50;15.13;;;;;;;-3.50;75.32;96720.11;1743110;82;21098;-71
2022/03/01 06:24:59;;;;;;;43.07;22.37;;;;;;;-3.43;75.21;96714.84;1742552;82;21070;-74
2022/03/01 06:27:26;;;;;;;41.53;20.23;;;;;;;-3.46;75.09;96720.27;1743189;82;21058;-70
2022/03/01 06:29:53;;;;;;;40.70;20.63;;;;;;;-3.39;75.02;96723.66;1743788;82;21106;-72
2022/03/01 06:32:20;;;;;;;39.90;22.00;;;;;;;-3.35;75.28;96727.78;1743559;82;21062;-68
2022/03/01 06:34:47;;;;;;;40.57;19.77;;;;;;;-3.22;75.13;96726.73;1743260;82;21558;-67
2022/03/01 06:37:14;;;;;;;48.80;28.70;;;;;;;-3.21;74.23;96731.07;1744471;82;21062;-65
2022/03/01 06:39:43;;;;;;;40.03;22.23;;;;;;;-3.31;73.97;96728.81;1744008;82;21102;-72
2022/03/01 06:42:12;;;;;;;107.33;61.03;;;;;;;-3.27;73.87;96731.64;1743578;82;21651;-70
2022/03/01 06:44:39;;;;;;;153.27;58.77;;;;;;;-3.30;74.43;96734.44;1742941;82;21057;-71
2022/03/01 06:47:06;;;;;;;53.23;27.57;;;;;;;-3.31;74.68;96732.27;1743926;82;20995;-72
2022/03/01 06:49:33;;;;;;;367.23;179.63;;;;;;;-3.24;74.83;96725.75;1743917;82;21498;-69
2022/03/01 06:51:59;;;;;;;75.77;37.20;;;;;;;-3.18;74.30;96728.64;1743816;82;21061;-68
2022/03/01 06:54:26;;;;;;;60.97;35.30;;;;;;;-3.11;75.64;96725.98;1743716;82;21100;-68
2022/03/01 06:56:53;;;;;;;93.93;46.57;;;;;;;-3.12;74.66;96724.22;1742769;82;21123;-67
2022/03/01 06:59:20;;;;;;;160.37;113.87;;;;;;;-2.99;74.72;96716.30;1743738;82;21481;-74
2022/03/01 07:01:46;;;;;;;70.33;41.97;;;;;;;-2.77;74.71;96709.63;1743985;82;21023;-68
2022/03/01 07:04:13;;;;;;;49.07;27.30;;;;;;;-2.59;74.29;96700.23;1744107;82;21556;-70
2022/03/01 07:06:39;;;;;;;42.73;23.00;;;;;;;-2.39;73.02;96703.80;1744192;82;21010;-70
2022/03/01 07:09:06;;;;;;;47.13;24.30;;;;;;;-2.21;72.82;96706.38;1744761;82;21014;-75
2022/03/01 07:11:32;;;;;;;34.97;19.50;;;;;;;-2.04;72.51;96712.34;1751705;82;21061;-74
2022/03/01 07:13:59;;;;;;;33.20;18.80;;;;;;;-1.92;71.70;96721.09;1752542;82;21010;-75
2022/03/01 07:16:26;;;;;;;27.53;16.93;;;;;;;-1.86;70.76;96710.64;1752375;82;20995;-78
2022/03/01 07:18:54;;;;;;;31.23;15.97;;;;;;;-1.78;71.12;96701.53;1752414;82;21006;-75
2022/03/01 07:21:21;;;;;;;33.23;17.60;;;;;;;-1.69;70.45;96700.17;1752900;82;21129;-67
2022/03/01 07:23:48;;;;;;;29.50;17.23;;;;;;;-1.59;69.74;96703.66;1752838;82;21070;-73
2022/03/01 07:26:14;;;;;;;26.63;15.43;;;;;;;-1.46;69.43;96706.40;1752746;82;21540;-69
2022/03/01 07:28:41;;;;;;;20.03;12.10;;;;;;;-1.35;69.09;96709.97;1752779;82;21042;-83
2022/03/01 07:31:07;;;;;;;17.60;11.43;;;;;;;-1.26;68.22;96705.63;1751891;81;21113;-74
2022/03/01 07:33:34;;;;;;;13.90;8.67;;;;;;;-1.09;68.12;96702.46;1751790;81;21555;-71
2022/03/01 07:36:01;;;;;;;10.90;7.20;;;;;;;-1.03;66.56;96697.56;1788508;80;21042;-73
2022/03/01 07:38:27;;;;;;;13.43;7.73;;;;;;;-1.09;64.86;96702.46;1788808;80;21006;-70
2022/03/01 07:40:54;;;;;;;10.63;6.53;;;;;;;-1.08;65.64;96708.14;1788952;80;21500;-71
2022/03/01 07:43:20;;;;;;;13.03;8.50;;;;;;;-0.94;65.79;96703.13;1789124;80;20951;-71
2022/03/01 07:45:47;;;;;;;14.30;8.50;;;;;;;-0.77;65.89;96701.69;1788617;80;21511;-73
2022/03/01 07:48:14;;;;;;;9.37;6.77;;;;;;;-0.54;65.80;96690.98;1788751;80;21059;-78
2022/03/01 07:50:40;;;;;;;14.27;8.33;;;;;;;-0.36;65.22;96693.03;1789394;80;21406;-69
2022/03/01 07:53:07;;;;;;;13.07;8.00;;;;;;;-0.16;64.90;96698.16;1788556;80;21061;-70
2022/03/01 07:55:34;;;;;;;10.90;7.67;;;;;;;0.05;64.38;96687.36;1789646;80;21539;-72
2022/03/01 07:58:01;;;;;;;15.70;7.67;;;;;;;0.17;62.48;96689.10;1789622;80;21018;-73
2022/03/01 08:00:27;;;;;;;11.50;7.33;;;;;;;0.28;62.94;96676.95;1788921;80;21048;-73
2022/03/01 08:02:54;;;;;;;17.03;10.00;;;;;;;0.43;62.44;96683.63;1788571;80;21093;-73
2022/03/01 08:05:22;;;;;;;16.77;9.43;;;;;;;0.59;62.63;96676.00;1788959;80;21021;-74
2022/03/01 08:07:49;;;;;;;14.40;8.47;;;;;;;0.65;61.56;96671.44;1789441;80;21003;-74
2022/03/01 08:10:16;;;;;;;12.53;6.90;;;;;;;0.74;61.31;96674.38;1789042;80;20983;-77
2022/03/01 08:12:43;;;;;;;10.50;6.73;;;;;;;0.92;60.98;96674.16;1789055;80;21066;-74
2022/03/01 08:15:11;;;;;;;10.27;6.03;;;;;;;1.07;59.22;96674.70;1789997;80;21485;-70
2022/03/01 08:17:48;;;;;;;13.87;8.00;;;;;;;1.16;59.48;96666.36;1790143;80;21057;-73
2022/03/01 08:20:14;;;;;;;11.07;7.20;;;;;;;1.30;60.37;96668.12;1789433;80;21078;-74
2022/03/01 08:22:41;;;;;;;11.37;5.60;;;;;;;1.41;58.72;96666.79;1789833;80;21065;-71
2022/03/01 08:25:09;;;;;;;8.43;4.07;;;;;;;1.46;58.40;96665.22;1788776;80;21587;-72
2022/03/01 08:27:36;;;;;;;6.53;4.30;;;;;;;1.51;53.52;96666.27;1789239;80;21045;-77
2022/03/01 08:30:04;;;;;;;11.23;6.30;;;;;;;1.53;54.48;96668.02;1788971;80;21241;-71
2022/03/01 08:32:31;;;;;;;10.67;5.33;;;;;;;1.73;56.75;96660.03;1789940;80;21010;-71
2022/03/01 08:34:58;;;;;;;6.30;4.30;;;;;;;1.85;54.89;96658.25;1789450;80;21033;-71
2022/03/01 08:37:26;;;;;;;4.87;3.63;;;;;;;1.85;51.29;96648.27;1790274;80;21010;-68
2022/03/01 08:39:53;;;;;;;9.03;5.30;;;;;;;1.86;50.38;96644.39;1790524;80;21090;-70
2022/03/01 08:42:20;;;;;;;13.97;6.67;;;;;;;2.02;49.74;96646.20;1789274;80;21077;-70
2022/03/01 08:44:47;;;;;;;4.27;2.77;;;;;;;2.19;51.90;96634.98;1789807;80;21074;-71
2022/03/01 08:47:14;;;;;;;4.87;3.40;;;;;;;2.26;49.37;96636.52;1788922;80;21025;-73
2022/03/01 08:49:40;;;;;;;4.53;2.70;;;;;;;2.41;50.41;96626.10;1789661;80;21034;-67
2022/03/01 08:52:07;;;;;;;7.77;2.33;;;;;;;2.53;50.43;96626.47;1789385;80;21528;-72
2022/03/01 08:54:33;;;;;;;3.40;2.00;;;;;;;2.52;46.43;96624.28;1790224;80;21018;-70
2022/03/01 08:57:00;;;;;;;2.33;1.60;;;;;;;2.45;46.26;96622.77;1789337;80;20994;-73
2022/03/01 08:59:26;;;;;;;8.87;2.47;;;;;;;2.50;45.81;96619.87;1789326;80;21010;-73
2022/03/01 09:01:53;;;;;;;5.30;3.13;;;;;;;2.39;45.75;96620.84;1790219;80;21026;-73
2022/03/01 09:04:20;;;;;;;4.60;2.30;;;;;;;2.47;45.63;96618.06;1789798;80;20994;-77
2022/03/01 09:06:46;;;;;;;3.00;1.80;;;;;;;2.54;45.57;96606.07;1790155;80;21456;-77
2022/03/01 09:09:12;;;;;;;3.77;1.83;;;;;;;2.44;44.24;96611.44;1790256;80;21014;-78
2022/03/01 09:11:39;;;;;;;4.63;1.50;;;;;;;2.31;43.52;96608.89;1783281;80;21485;-77
2022/03/01 09:14:06;;;;;;;1.70;1.20;;;;;;;2.25;43.13;96604.81;1783205;80;21042;-76
2022/03/01 09:16:33;;;;;;;1.23;0.90;;;;;;;2.26;44.49;96605.69;1783103;80;21069;-77
2022/03/01 09:18:59;;;;;;;1.27;0.80;;;;;;;2.25;42.43;96610.02;1782680;80;21011;-67
2022/03/01 09:21:26;;;;;;;4.47;2.43;;;;;;;2.31;42.84;96608.89;1782618;80;21626;-72
2022/03/01 09:23:52;;;;;;;6.83;3.20;;;;;;;2.25;45.45;96610.02;1781431;80;21065;-68
2022/03/01 09:26:19;;;;;;;6.20;2.87;;;;;;;2.36;46.16;96606.00;1782471;80;21073;-70
2022/03/01 09:28:46;;;;;;;1.17;1.00;;;;;;;2.44;45.42;96604.92;1782716;80;20995;-69
2022/03/01 09:31:12;;;;;;;1.10;1.00;;;;;;;2.57;44.63;96600.94;1782850;80;21532;-70
2022/03/01 09:33:42;;;;;;;1.20;1.00;;;;;;;2.68;42.33;96593.02;1783142;80;20986;-69
2022/03/01 09:36:12;;;;;;;2.57;1.20;;;;;;;2.79;42.24;96597.22;1781851;80;20991;-69
2022/03/01 09:38:39;;;;;;;3.10;2.23;;;;;;;2.91;42.64;96587.56;1781744;80;21014;-72
2022/03/01 09:41:06;;;;;;;2.40;1.50;;;;;;;2.96;42.47;96585.53;1782511;80;21010;-68
2022/03/01 09:43:37;;;;;;;3.20;1.90;;;;;;;2.94;42.69;96587.64;1782457;80;21046;-71
2022/03/01 09:46:05;;;;;;;1.77;1.30;;;;;;;3.03;42.44;96590.50;1782460;80;21062;-73
2022/03/01 09:48:32;;;;;;;1.90;1.37;;;;;;;2.95;39.94;96586.39;1782793;80;21081;-69
2022/03/01 09:51:01;;;;;;;2.23;1.23;;;;;;;2.84;39.90;96583.89;1753820;80;21352;-69
2022/03/01 09:53:28;;;;;;;3.47;1.90;;;;;;;2.63;40.67;96575.51;1781985;80;20986;-69
2022/03/01 09:55:59;;;;;;;2.57;1.50;;;;;;;2.57;41.80;96581.02;1782056;80;21543;-69
2022/03/01 09:58:25;;;;;;;3.07;1.70;;;;;;;2.52;40.45;96582.99;1782961;80;21018;-70
2022/03/01 10:00:52;;;;;;;4.63;3.57;;;;;;;2.52;40.84;96580.00;1782410;80;21077;-74
2022/03/01 10:03:20;;;;;;;4.63;2.97;;;;;;;2.41;40.49;96577.91;1781267;80;21136;-75
2022/03/01 10:05:47;;;;;;;3.17;1.93;;;;;;;2.40;41.89;96581.38;1781387;80;21069;-71
2022/03/01 10:08:17;;;;;;;4.23;2.70;;;;;;;2.45;40.63;96576.75;1781841;80;20971;-70
2022/03/01 10:10:48;;;;;;;6.50;2.47;;;;;;;2.49;41.79;96570.77;1780169;80;21536;-70
2022/03/01 10:13:29;;;;;;;5.17;2.00;;;;;;;2.60;42.29;96568.06;1781643;80;21054;-70
2022/03/01 10:16:16;;;;;;;6.33;2.00;;;;;;;2.65;40.88;96568.20;1782044;80;20951;-70
2022/03/01 10:18:53;;;;;;;8.50;5.67;;;;;;;2.71;40.94;96562.26;1743758;82;21524;-70
2022/03/01 10:21:22;;;;;;;4.27;2.27;;;;;;;2.84;41.23;96560.86;1715282;82;20967;-70
2022/03/01 10:23:53;;;;;;;2.73;1.60;;;;;;;2.85;39.64;96558.31;1718389;83;21098;-70
2022/03/01 10:26:27;;;;;;;12.83;3.83;;;;;;;2.95;39.97;96551.19;1718325;83;20987;-70
2022/03/01 10:28:56;;;;;;;5.70;3.30;;;;;;;3.17;40.54;96542.17;1718252;83;21018;-70
2022/03/01 10:31:29;;;;;;;3.47;2.17;;;;;;;3.31;38.63;96539.05;1718214;83;21062;-71
2022/03/01 10:34:00;;;;;;;3.12;1.85;;;;;;;3.47;39.80;96542.48;1718473;83;21505;-70
2022/03/01 10:36:38;;;;;;;3.37;1.77;;;;;;;3.52;37.71;96532.16;1712926;84;21035;-70
2022/03/01 10:39:14;;;;;;;5.40;3.07;;;;;;;3.48;36.81;96531.21;1718040;83;21000;-70
2022/03/01 10:41:44;;;;;;;5.53;3.73;;;;;;;3.49;36.87;96528.17;1718292;83;21011;-70
2022/03/01 10:44:20;;;;;;;2.90;1.90;;;;;;;3.53;36.80;96520.86;1718497;83;21536;-70
2022/03/01 10:46:56;;;;;;;4.03;2.37;;;;;;;3.54;36.86;96511.77;1718391;83;21015;-70
2022/03/01 10:49:31;;;;;;;6.43;4.47;;;;;;;3.67;38.06;96503.80;1718413;83;21019;-70
2022/03/01 10:52:03;;;;;;;2.67;2.13;;;;;;;3.88;37.51;96503.39;1718352;83;21010;-71
2022/03/01 10:54:35;;;;;;;4.17;2.47;;;;;;;4.12;36.03;96499.12;1718308;83;21019;-70
2022/03/01 10:57:11;;;;;;;3.35;2.08;;;;;;;4.19;36.27;96495.80;1718548;83;21011;-70
2022/03/01 10:59:40;;;;;;;2.10;1.70;;;;;;;4.31;37.19;96493.88;1718341;83;21058;-70
2022/03/01 11:02:07;;;;;;;7.40;6.70;;;;;;;4.21;34.40;96487.58;1718277;83;21158;-70
2022/03/01 11:04:35;;;;;;;2.93;1.90;;;;;;;4.27;36.14;96487.68;1718498;83;20976;-70
2022/03/01 11:07:05;;;;;;;4.67;2.00;;;;;;;4.39;36.81;96479.22;1718508;83;21396;-70
2022/03/01 11:09:34;;;;;;;3.97;1.87;;;;;;;4.51;34.63;96482.47;1718452;83;21070;-69
2022/03/01 11:12:03;;;;;;;3.30;1.60;;;;;;;4.71;36.32;96469.38;1718206;83;21509;-70
2022/03/01 11:14:35;;;;;;;3.30;1.80;;;;;;;4.77;33.93;96468.59;1718287;83;21042;-68
2022/03/01 11:17:24;;;;;;;2.50;1.93;;;;;;;4.67;34.57;96463.63;1718403;83;21034;-68
2022/03/01 11:20:17;;;;;;;3.13;1.67;;;;;;;4.96;36.24;96461.94;1718502;83;21019;-70
2022/03/01 11:23:01;;;;;;;2.87;2.17;;;;;;;5.17;35.61;96447.05;1718653;83;20980;-70
2022/03/01 11:25:30;;;;;;;3.63;1.80;;;;;;;5.47;34.63;96440.09;1718420;83;21094;-69
2022/03/01 11:28:05;;;;;;;3.80;2.27;;;;;;;5.69;36.16;96441.70;1717659;83;21019;-69
2022/03/01 11:30:36;;;;;;;4.47;2.70;;;;;;;6.18;34.66;96434.09;1718355;83;21035;-68
2022/03/01 11:33:03;;;;;;;3.97;2.27;;;;;;;6.55;34.06;96432.29;1718536;83;21562;-68
2022/03/01 11:35:35;;;;;;;4.20;2.60;;;;;;;6.70;31.24;96427.20;1718158;83;21035;-68